Αρχική σελίδα
METAR-TAF:

METAR-TAF

Αεροδρόμια :

Γκραν Κανάρια, Ισπανία

γεωγραφικό πλάτος: 27-56N, γεωγραφικό μήκος: 015-23W, υψόμετρο: 23 μ

Παρών καιρός

Η αναφορά έγινε 22 λεπτά πριν, στις 11:00 UTC
Άνεμος 6 kt από Α, μεταβλητός μεταξύ BA και ΝA
Θερμοκρασία 21°C
Υγρασία 60%
Πίεση 1015 hPa
Ορατότητα 10 χλμ και άνω
Λίγα νέφη σε ύψος 4000 πόδια

METAR: GCLP 161100Z 08006KT 050V130 9999 FEW040 21/13 Q1015 NOSIG

Χρόνος: 11:22 (11:22 UTC)

Πρόγνωση Καιρού

Η αναφορά έγινε 3 ώρες και 22 λεπτά πριν, στις 08:00 UTC
Η πρόγνωση ισχύει από τις 16 στις 09 UTC έως τις 17 στις 09 UTC
Άνεμος 10 kt από Β
Ορατότητα 10 χλμ και άνω
Λίγα νέφη σε ύψος 3000 πόδια
Προσωρινά
από 16 στις 11 UTC έως τις 16 στις 21 UTC
Άνεμος 7 kt από ΝA
Καθιστάμενος
από 16 στις 21 UTC έως τις 16 στις 24 UTC
Άνεμος 5 kt από Δ

TAF: GCLP 160800Z 1609/1709 36010KT 9999 FEW030 TX22/1614Z TN16/1706Z TEMPO 1611/1621 14007KT BECMG 1621/1624 27005KT

Μετεωρολογικές αναφορές και προγνώσεις για περισσότερα από 4000 αεροδρόμια (δελτία METAR και TAF).

Οι διαθέσιμοι σταθμοί απεικονίζονται στο χάρτη με κίτρινες και κόκκινες κουκκίδες.

Μετακινήστε το ποντίκι πάνω από τις κουκκίδες για να δείτε το όνομα του σταθμού.

Στη συνέχεια, κάντε κλικ για να δείτε τις μετεωρολογικές αναφορές και τις προγνώσεις καιρού.

Για να αλλάξετε το χάρτη: κάντε κλικ στα πράσινα κουμπιά με τον μαύρο σταυρό για να ζουμάρετε, στο πράσινο κουμπί με την παύλα για να αφαιρέσετε το ζουμ ή στα πράσινα βέλη για να αντιπαραβάλλετε χάρτες.


METAR-TAF: